createdAt,value
2018-12-19T00:00:50.047Z,1005.58
2018-12-19T00:01:50.013Z,1005.58
2018-12-19T00:02:49.988Z,1005.57
2018-12-19T00:03:49.969Z,1005.54
2018-12-19T00:04:49.948Z,1005.49
2018-12-19T00:05:49.929Z,1005.47
2018-12-19T00:06:49.903Z,1005.43
2018-12-19T00:07:49.881Z,1005.39
2018-12-19T00:08:49.859Z,1005.38
2018-12-19T00:09:49.843Z,1005.37
2018-12-19T00:10:49.815Z,1005.38
2018-12-19T00:11:49.793Z,1005.37
2018-12-19T00:12:49.777Z,1005.34
2018-12-19T00:13:49.748Z,1005.29
2018-12-19T00:14:49.724Z,1005.24
2018-12-19T00:15:49.699Z,1005.24
2018-12-19T00:16:49.679Z,1005.12
2018-12-19T00:17:49.655Z,1005.14
2018-12-19T00:18:49.635Z,1005.08
2018-12-19T00:19:49.612Z,1005.08
2018-12-19T00:20:49.594Z,1005.03
2018-12-19T00:21:49.570Z,1005.04
2018-12-19T00:22:49.555Z,1005.03
2018-12-19T00:23:49.527Z,1004.98
2018-12-19T00:24:49.510Z,1005.00
2018-12-19T00:25:49.479Z,1004.97
2018-12-19T00:26:49.458Z,1004.92
2018-12-19T00:27:49.436Z,1004.96
2018-12-19T00:28:49.413Z,1004.97
2018-12-19T00:29:49.392Z,1004.90
2018-12-19T00:30:49.367Z,1004.93
2018-12-19T00:31:49.346Z,1004.87
2018-12-19T00:32:49.324Z,1004.87
2018-12-19T00:33:49.304Z,1004.83
2018-12-19T00:34:49.330Z,1004.82
2018-12-19T00:35:49.265Z,1004.81
2018-12-19T00:36:49.234Z,1004.84
2018-12-19T00:37:49.220Z,1004.82
2018-12-19T00:38:49.190Z,1004.84
2018-12-19T00:39:49.169Z,1004.81
2018-12-19T00:40:49.148Z,1004.86
2018-12-19T00:41:49.133Z,1004.76
2018-12-19T00:42:49.101Z,1004.76
2018-12-19T00:43:49.082Z,1004.75
2018-12-19T00:44:49.055Z,1004.70
2018-12-19T00:45:49.057Z,1004.70
2018-12-19T00:46:49.013Z,1004.73
2018-12-19T00:47:48.992Z,1004.66
2018-12-19T00:48:48.971Z,1004.71
2018-12-19T00:49:48.947Z,1004.75
2018-12-19T00:50:48.922Z,1004.78
2018-12-19T00:51:48.904Z,1004.83
2018-12-19T00:52:48.898Z,1004.80
2018-12-19T00:53:48.864Z,1004.83
2018-12-19T00:54:48.833Z,1004.85
2018-12-19T00:55:48.812Z,1004.83
2018-12-19T00:56:48.790Z,1004.83
2018-12-19T00:57:48.772Z,1004.83
2018-12-19T00:58:48.745Z,1004.81
2018-12-19T00:59:48.724Z,1004.82
2018-12-19T01:00:48.702Z,1004.87
2018-12-19T01:01:48.685Z,1004.88
2018-12-19T01:02:48.655Z,1004.89
2018-12-19T01:03:48.633Z,1004.90
2018-12-19T01:04:48.614Z,1004.90
2018-12-19T01:05:48.590Z,1004.93
2018-12-19T01:06:48.568Z,1004.91
2018-12-19T01:07:48.565Z,1004.84
2018-12-19T01:08:48.524Z,1004.91
2018-12-19T01:09:48.505Z,1004.89
2018-12-19T01:10:48.478Z,1004.88
2018-12-19T01:11:48.457Z,1004.84
2018-12-19T01:12:48.485Z,1004.86
2018-12-19T01:13:48.413Z,1004.89
2018-12-19T01:14:48.395Z,1004.82
2018-12-19T01:15:48.367Z,1004.81
2018-12-19T01:16:48.343Z,1004.80
2018-12-19T01:17:48.321Z,1004.81
2018-12-19T01:18:48.298Z,1004.75
2018-12-19T01:19:48.276Z,1004.76
2018-12-19T01:20:48.256Z,1004.71
2018-12-19T01:21:48.235Z,1004.73
2018-12-19T01:22:48.212Z,1004.67
2018-12-19T01:23:48.189Z,1004.64
2018-12-19T01:24:48.167Z,1004.69
2018-12-19T01:25:48.149Z,1004.69
2018-12-19T01:26:48.120Z,1004.70
2018-12-19T01:27:48.103Z,1004.72
2018-12-19T01:28:48.078Z,1004.72
2018-12-19T01:29:48.056Z,1004.69
2018-12-19T01:30:48.042Z,1004.64
2018-12-19T01:31:48.013Z,1004.62
2018-12-19T01:32:48.008Z,1004.59
2018-12-19T01:33:47.971Z,1004.56
2018-12-19T01:34:47.945Z,1004.57
2018-12-19T01:35:47.922Z,1004.57
2018-12-19T01:36:47.914Z,1004.54
2018-12-19T01:37:47.880Z,1004.49
2018-12-19T01:38:47.863Z,1004.50
2018-12-19T01:39:47.841Z,1004.52
2018-12-19T01:40:47.812Z,1004.50
2018-12-19T01:41:47.790Z,1004.47
2018-12-19T01:42:47.769Z,1004.43
2018-12-19T01:43:47.745Z,1004.42
2018-12-19T01:44:47.723Z,1004.40
2018-12-19T01:45:47.700Z,1004.40
2018-12-19T01:46:47.679Z,1004.39
2018-12-19T01:47:47.654Z,1004.38
2018-12-19T01:48:47.635Z,1004.41
2018-12-19T01:49:47.610Z,1004.40
2018-12-19T01:50:47.592Z,1004.42
2018-12-19T01:51:47.564Z,1004.37
2018-12-19T01:52:47.544Z,1004.39
2018-12-19T01:53:47.522Z,1004.41
2018-12-19T01:54:47.498Z,1004.39
2018-12-19T01:55:47.476Z,1004.41
2018-12-19T01:56:47.458Z,1004.40
2018-12-19T01:57:47.433Z,1004.35
2018-12-19T01:58:47.410Z,1004.25
2018-12-19T01:59:47.389Z,1004.23
2018-12-19T02:00:47.369Z,1004.25
2018-12-19T02:01:47.343Z,1004.23
2018-12-19T02:02:47.321Z,1004.30
2018-12-19T02:03:47.299Z,1004.27
2018-12-19T02:04:47.275Z,1004.30
2018-12-19T02:05:47.253Z,1004.33
2018-12-19T02:06:47.231Z,1004.38
2018-12-19T02:07:47.210Z,1004.31
2018-12-19T02:08:47.187Z,1004.29
2018-12-19T02:09:47.167Z,1004.25
2018-12-19T02:10:47.144Z,1004.23
2018-12-19T02:11:47.120Z,1004.26
2018-12-19T02:12:47.100Z,1004.27
2018-12-19T02:13:47.078Z,1004.21
2018-12-19T02:14:47.059Z,1004.29
2018-12-19T02:15:47.030Z,1004.32
2018-12-19T02:16:47.012Z,1004.20
2018-12-19T02:17:46.986Z,1004.19
2018-12-19T02:18:46.965Z,1004.15
2018-12-19T02:19:46.942Z,1004.17
2018-12-19T02:20:46.921Z,1004.16
2018-12-19T02:21:46.901Z,1004.15
2018-12-19T02:22:46.878Z,1004.20
2018-12-19T02:23:46.857Z,1004.19
2018-12-19T02:24:46.833Z,1004.23
2018-12-19T02:25:46.812Z,1004.22
2018-12-19T02:26:46.790Z,1004.20
2018-12-19T02:27:46.766Z,1004.20
2018-12-19T02:28:46.744Z,1004.29
2018-12-19T02:29:46.722Z,1004.28
2018-12-19T02:30:46.700Z,1004.25
2018-12-19T02:31:46.681Z,1004.20
2018-12-19T02:32:46.655Z,1004.22
2018-12-19T02:33:46.633Z,1004.36
2018-12-19T02:34:46.612Z,1004.43
2018-12-19T02:35:46.588Z,1004.42
2018-12-19T02:36:46.568Z,1004.46
2018-12-19T02:37:46.546Z,1004.43
2018-12-19T02:38:46.525Z,1004.42
2018-12-19T02:39:46.499Z,1004.50
2018-12-19T02:40:46.482Z,1004.55
2018-12-19T02:41:46.458Z,1004.60
2018-12-19T02:42:46.437Z,1004.56
2018-12-19T02:43:46.412Z,1004.55
2018-12-19T02:44:46.396Z,1004.60
2018-12-19T02:45:46.369Z,1004.60
2018-12-19T02:46:46.355Z,1004.61
2018-12-19T02:47:46.325Z,1004.58
2018-12-19T02:48:46.301Z,1004.56
2018-12-19T02:49:46.279Z,1004.62
2018-12-19T02:50:46.273Z,1004.56
2018-12-19T02:51:46.239Z,1004.56
2018-12-19T02:52:46.216Z,1004.53
2018-12-19T02:53:46.192Z,1004.53
2018-12-19T02:54:46.170Z,1004.52
2018-12-19T02:55:46.145Z,1004.53
2018-12-19T02:56:46.124Z,1004.52
2018-12-19T02:57:46.103Z,1004.52
2018-12-19T02:58:46.078Z,1004.48
2018-12-19T02:59:46.059Z,1004.46
2018-12-19T03:00:46.037Z,1004.51
2018-12-19T03:01:46.018Z,1004.48
2018-12-19T03:02:45.998Z,1004.44
2018-12-19T03:03:46.024Z,1004.43
2018-12-19T03:04:45.948Z,1004.44
2018-12-19T03:05:45.926Z,1004.42
2018-12-19T03:06:45.902Z,1004.40
2018-12-19T03:07:45.885Z,1004.39
2018-12-19T03:08:45.860Z,1004.35
2018-12-19T03:09:45.837Z,1004.40
2018-12-19T03:10:45.816Z,1004.36
2018-12-19T03:11:45.804Z,1004.32
2018-12-19T03:12:45.774Z,1004.39
2018-12-19T03:13:45.749Z,1004.42
2018-12-19T03:14:45.733Z,1004.44
2018-12-19T03:15:45.707Z,1004.44
2018-12-19T03:16:45.687Z,1004.48
2018-12-19T03:17:45.668Z,1004.50
2018-12-19T03:18:45.645Z,1004.52
2018-12-19T03:19:45.622Z,1004.50
2018-12-19T03:20:45.597Z,1004.49
2018-12-19T03:21:45.576Z,1004.51
2018-12-19T03:22:45.557Z,1004.42
2018-12-19T03:23:45.538Z,1004.45
2018-12-19T03:24:45.516Z,1004.42
2018-12-19T03:25:45.496Z,1004.44
2018-12-19T03:26:45.467Z,1004.46
2018-12-19T03:27:45.446Z,1004.39
2018-12-19T03:28:45.426Z,1004.33
2018-12-19T03:29:45.405Z,1004.32
2018-12-19T03:30:45.381Z,1004.29
2018-12-19T03:31:45.358Z,1004.32
2018-12-19T03:32:45.344Z,1004.27
2018-12-19T03:33:45.315Z,1004.31
2018-12-19T03:34:45.294Z,1004.35
2018-12-19T03:35:45.268Z,1004.34
2018-12-19T03:36:45.247Z,1004.35
2018-12-19T03:37:45.227Z,1004.37
2018-12-19T03:38:45.203Z,1004.42
2018-12-19T03:39:50.285Z,1004.45
2018-12-19T03:40:45.163Z,1004.47
2018-12-19T03:41:45.141Z,1004.50
2018-12-19T03:42:45.123Z,1004.51
2018-12-19T03:43:45.098Z,1004.56
2018-12-19T03:44:45.078Z,1004.50
2018-12-19T03:45:45.056Z,1004.49
2018-12-19T03:46:45.038Z,1004.51
2018-12-19T03:47:45.011Z,1004.51
2018-12-19T03:48:44.990Z,1004.48
2018-12-19T03:49:44.974Z,1004.43
2018-12-19T03:50:44.946Z,1004.38
2018-12-19T03:51:44.928Z,1004.33
2018-12-19T03:52:44.904Z,1004.36
2018-12-19T03:53:44.887Z,1004.29
2018-12-19T03:54:44.861Z,1004.31
2018-12-19T03:55:44.846Z,1004.32
2018-12-19T03:56:44.820Z,1004.28
2018-12-19T03:57:44.798Z,1004.31
2018-12-19T03:58:44.775Z,1004.24
2018-12-19T03:59:44.754Z,1004.23
2018-12-19T04:00:44.732Z,1004.18
2018-12-19T04:01:44.714Z,1004.25
2018-12-19T04:02:44.688Z,1004.21
2018-12-19T04:03:44.668Z,1004.19
2018-12-19T04:04:44.650Z,1004.20
2018-12-19T04:05:44.624Z,1004.14
2018-12-19T04:06:44.608Z,1004.10
2018-12-19T04:07:44.583Z,1004.09
2018-12-19T04:08:44.561Z,1004.05
2018-12-19T04:09:44.542Z,1004.12
2018-12-19T04:10:44.519Z,1004.06
2018-12-19T04:11:44.497Z,1003.94
2018-12-19T04:12:44.476Z,1003.91
2018-12-19T04:13:44.452Z,1003.89
2018-12-19T04:14:44.430Z,1003.95
2018-12-19T04:15:44.415Z,1003.93
2018-12-19T04:16:44.389Z,1003.93
2018-12-19T04:17:44.373Z,1003.91
2018-12-19T04:18:44.345Z,1003.94
2018-12-19T04:19:44.331Z,1003.97
2018-12-19T04:20:44.303Z,1003.97
2018-12-19T04:21:44.283Z,1003.92
2018-12-19T04:22:44.259Z,1003.90
2018-12-19T04:23:44.250Z,1003.88
2018-12-19T04:24:44.218Z,1003.78
2018-12-19T04:25:44.194Z,1003.78
2018-12-19T04:26:44.170Z,1003.75
2018-12-19T04:27:44.157Z,1003.76
2018-12-19T04:28:44.127Z,1003.76
2018-12-19T04:29:44.111Z,1003.71
2018-12-19T04:30:44.104Z,1003.72
2018-12-19T04:31:44.069Z,1003.72
2018-12-19T04:32:44.045Z,1003.74
2018-12-19T04:33:44.068Z,1003.73
2018-12-19T04:34:43.997Z,1003.69
2018-12-19T04:35:43.978Z,1003.73
2018-12-19T04:36:43.971Z,1003.71
2018-12-19T04:37:43.935Z,1003.61
2018-12-19T04:38:43.920Z,1003.59
2018-12-19T04:39:43.896Z,1003.67
2018-12-19T04:40:43.875Z,1003.65
2018-12-19T04:41:43.849Z,1003.66
2018-12-19T04:42:43.832Z,1003.63
2018-12-19T04:43:43.806Z,1003.59
2018-12-19T04:44:43.782Z,1003.56
2018-12-19T04:45:43.762Z,1003.54
2018-12-19T04:46:43.737Z,1003.49
2018-12-19T04:47:43.719Z,1003.47
2018-12-19T04:48:43.703Z,1003.46
2018-12-19T04:49:43.673Z,1003.43
2018-12-19T04:50:43.651Z,1003.44
2018-12-19T04:51:43.636Z,1003.46
2018-12-19T04:52:43.608Z,1003.58
2018-12-19T04:53:43.585Z,1003.50
2018-12-19T04:54:43.564Z,1003.63
2018-12-19T04:55:43.545Z,1003.60
2018-12-19T04:56:43.522Z,1003.59
2018-12-19T04:57:43.499Z,1003.59
2018-12-19T04:58:43.500Z,1003.59
2018-12-19T04:59:43.456Z,1003.58
2018-12-19T05:00:43.436Z,1003.59
2018-12-19T05:01:43.413Z,1003.63
2018-12-19T05:02:43.390Z,1003.59
2018-12-19T05:03:43.370Z,1003.62
2018-12-19T05:04:43.346Z,1003.64
2018-12-19T05:05:43.330Z,1003.55
2018-12-19T05:06:43.304Z,1003.54
2018-12-19T05:07:43.282Z,1003.59
2018-12-19T05:08:43.264Z,1003.57
2018-12-19T05:09:43.240Z,1003.59
2018-12-19T05:10:43.216Z,1003.64
2018-12-19T05:11:43.196Z,1003.67
2018-12-19T05:12:43.174Z,1003.69
2018-12-19T05:13:43.153Z,1003.71
2018-12-19T05:14:43.131Z,1003.72
2018-12-19T05:15:43.137Z,1003.76
2018-12-19T05:16:43.090Z,1003.71
2018-12-19T05:17:43.068Z,1003.73
2018-12-19T05:18:43.046Z,1003.77
2018-12-19T05:19:43.025Z,1003.70
2018-12-19T05:20:43.000Z,1003.74
2018-12-19T05:21:42.978Z,1003.77
2018-12-19T05:22:42.956Z,1003.74
2018-12-19T05:23:42.932Z,1003.75
2018-12-19T05:24:42.910Z,1003.79
2018-12-19T05:25:42.891Z,1003.79
2018-12-19T05:26:42.866Z,1003.85
2018-12-19T05:27:42.844Z,1003.85
2018-12-19T05:28:42.821Z,1003.88
2018-12-19T05:29:42.800Z,1003.91
2018-12-19T05:30:42.777Z,1003.91
2018-12-19T05:31:42.756Z,1003.92
2018-12-19T05:32:42.738Z,1003.91
2018-12-19T05:33:42.719Z,1003.92
2018-12-19T05:34:42.695Z,1003.94
2018-12-19T05:35:42.672Z,1003.95
2018-12-19T05:36:42.650Z,1003.93
2018-12-19T05:37:42.630Z,1003.96
2018-12-19T05:38:42.607Z,1003.92
2018-12-19T05:39:42.586Z,1003.93
2018-12-19T05:40:42.561Z,1003.90
2018-12-19T05:41:42.539Z,1003.90
2018-12-19T05:42:42.519Z,1003.90
2018-12-19T05:43:42.498Z,1003.90
2018-12-19T05:44:42.474Z,1003.91
2018-12-19T05:45:42.459Z,1003.92
2018-12-19T05:46:42.436Z,1003.96
2018-12-19T05:47:42.414Z,1003.94
2018-12-19T05:48:42.389Z,1003.92
2018-12-19T05:49:42.369Z,1003.91
2018-12-19T05:50:42.344Z,1003.94
2018-12-19T05:51:42.322Z,1004.01
2018-12-19T05:52:42.302Z,1003.95
2018-12-19T05:53:42.281Z,1003.98
2018-12-19T05:54:42.255Z,1004.01
2018-12-19T05:55:42.235Z,1004.02
2018-12-19T05:56:42.212Z,1004.06
2018-12-19T05:57:42.200Z,1004.08
2018-12-19T05:58:42.168Z,1004.10
2018-12-19T05:59:42.148Z,1004.09
2018-12-19T06:00:42.128Z,1004.05
2018-12-19T06:01:42.109Z,1004.04
2018-12-19T06:02:42.082Z,1004.06
2018-12-19T06:03:42.065Z,1004.09
2018-12-19T06:04:42.050Z,1004.13
2018-12-19T06:05:42.019Z,1004.12
2018-12-19T06:06:41.996Z,1004.05
2018-12-19T06:07:41.976Z,1004.10
2018-12-19T06:08:41.956Z,1004.03
2018-12-19T06:09:41.932Z,1004.06
2018-12-19T06:10:41.921Z,1004.09
2018-12-19T06:11:41.888Z,1004.12
2018-12-19T06:12:41.869Z,1004.14
2018-12-19T06:13:41.846Z,1004.10
2018-12-19T06:14:41.825Z,1004.05
2018-12-19T06:15:41.802Z,1004.10
2018-12-19T06:16:41.788Z,1004.06
2018-12-19T06:17:41.760Z,1004.10
2018-12-19T06:18:41.747Z,1004.06
2018-12-19T06:19:41.717Z,1004.02
2018-12-19T06:20:41.697Z,1004.02
2018-12-19T06:21:41.673Z,1004.03
2018-12-19T06:22:41.652Z,1004.02
2018-12-19T06:23:41.641Z,1004.09
2018-12-19T06:24:41.610Z,1004.15
2018-12-19T06:25:41.588Z,1004.13
2018-12-19T06:26:41.568Z,1004.13
2018-12-19T06:27:41.546Z,1004.16
2018-12-19T06:28:41.527Z,1004.16
2018-12-19T06:29:41.509Z,1004.12
2018-12-19T06:30:41.483Z,1004.17
2018-12-19T06:31:41.468Z,1004.13
2018-12-19T06:32:41.440Z,1004.17
2018-12-19T06:33:41.423Z,1004.14
2018-12-19T06:34:41.395Z,1004.15
2018-12-19T06:35:41.378Z,1004.12
2018-12-19T06:36:41.454Z,1004.18
2018-12-19T06:37:41.337Z,1004.17
2018-12-19T06:38:41.318Z,1004.20
2018-12-19T06:39:41.293Z,1004.18
2018-12-19T06:40:41.267Z,1004.12
2018-12-19T06:41:41.248Z,1004.13
2018-12-19T06:42:41.225Z,1004.15
2018-12-19T06:43:41.210Z,1004.18
2018-12-19T06:44:41.192Z,1004.25
2018-12-19T06:45:41.161Z,1004.27
2018-12-19T06:46:41.140Z,1004.34
2018-12-19T06:47:41.119Z,1004.24
2018-12-19T06:48:41.098Z,1004.18
2018-12-19T06:49:41.080Z,1004.20
2018-12-19T06:50:41.074Z,1004.27
2018-12-19T06:51:41.036Z,1004.34
2018-12-19T06:52:41.019Z,1004.28
2018-12-19T06:53:40.993Z,1004.30
2018-12-19T06:54:40.970Z,1004.35
2018-12-19T06:55:40.957Z,1004.32
2018-12-19T06:56:40.928Z,1004.39
2018-12-19T06:57:40.909Z,1004.40
2018-12-19T06:58:40.891Z,1004.37
2018-12-19T06:59:40.869Z,1004.44
2018-12-19T07:00:40.849Z,1004.39
2018-12-19T07:01:40.824Z,1004.39
2018-12-19T07:02:40.805Z,1004.39
2018-12-19T07:03:40.782Z,1004.34
2018-12-19T07:04:40.761Z,1004.40
2018-12-19T07:05:40.742Z,1004.40
2018-12-19T07:06:40.720Z,1004.40
2018-12-19T07:07:40.746Z,1004.38
2018-12-19T07:08:41.512Z,1004.38
2018-12-19T07:09:40.655Z,1004.34
2018-12-19T07:10:40.633Z,1004.46
2018-12-19T07:11:40.613Z,1004.39
2018-12-19T07:12:40.603Z,1004.42
2018-12-19T07:13:40.572Z,1004.41
2018-12-19T07:14:40.561Z,1004.41
2018-12-19T07:15:40.531Z,1004.42
2018-12-19T07:16:43.410Z,1004.45
2018-12-19T07:17:40.488Z,1004.48
2018-12-19T07:18:40.463Z,1004.43
2018-12-19T07:19:40.442Z,1004.46
2018-12-19T07:20:40.424Z,1004.56
2018-12-19T07:21:40.396Z,1004.53
2018-12-19T07:22:40.375Z,1004.57
2018-12-19T07:23:40.354Z,1004.53
2018-12-19T07:24:40.343Z,1004.49
2018-12-19T07:25:40.313Z,1004.49
2018-12-19T07:26:40.296Z,1004.58
2018-12-19T07:27:40.268Z,1004.56
2018-12-19T07:28:40.260Z,1004.54
2018-12-19T07:29:40.231Z,1004.55
2018-12-19T07:30:40.206Z,1004.56
2018-12-19T07:31:40.186Z,1004.55
2018-12-19T07:32:40.163Z,1004.65
2018-12-19T07:33:40.156Z,1004.61
2018-12-19T07:34:44.166Z,1004.59
2018-12-19T07:35:40.103Z,1004.64
2018-12-19T07:36:40.094Z,1004.60
2018-12-19T07:37:40.058Z,1004.65
2018-12-19T07:38:40.035Z,1004.62
2018-12-19T07:39:40.016Z,1004.69
2018-12-19T07:40:45.503Z,1004.71
2018-12-19T07:41:39.979Z,1004.74
2018-12-19T07:42:39.954Z,1004.76
2018-12-19T07:43:39.940Z,1004.71
2018-12-19T07:44:39.914Z,1004.74
2018-12-19T07:45:39.886Z,1004.78
2018-12-19T07:46:39.873Z,1004.76
2018-12-19T07:47:39.851Z,1004.79
2018-12-19T07:48:39.830Z,1004.70
2018-12-19T07:49:39.806Z,1004.74
2018-12-19T07:50:39.783Z,1004.92
2018-12-19T07:51:39.764Z,1004.77
2018-12-19T07:52:39.740Z,1004.74
2018-12-19T07:53:39.720Z,1004.75
2018-12-19T07:54:39.707Z,1004.75
2018-12-19T07:55:39.684Z,1004.73
2018-12-19T07:56:39.654Z,1004.69
2018-12-19T07:57:39.645Z,1004.72
2018-12-19T07:58:39.613Z,1004.77
2018-12-19T07:59:39.600Z,1004.71
2018-12-19T08:00:39.578Z,1004.73
2018-12-19T08:01:39.550Z,1004.76
2018-12-19T08:02:39.532Z,1004.82
2018-12-19T08:03:39.507Z,1004.78
2018-12-19T08:04:39.488Z,1004.78
2018-12-19T08:05:39.473Z,1004.84
2018-12-19T08:06:39.446Z,1004.81
2018-12-19T08:07:39.422Z,1004.89
2018-12-19T08:08:39.402Z,1004.98
2018-12-19T08:09:39.382Z,1004.94
2018-12-19T08:10:39.361Z,1004.92
2018-12-19T08:11:39.349Z,1004.99
2018-12-19T08:12:39.320Z,1004.95
2018-12-19T08:13:39.301Z,1005.01
2018-12-19T08:14:39.273Z,1005.04
2018-12-19T08:15:39.251Z,1005.03
2018-12-19T08:16:39.247Z,1005.00
2018-12-19T08:17:39.214Z,1005.03
2018-12-19T08:18:39.195Z,1004.99
2018-12-19T08:19:39.168Z,1005.05
2018-12-19T08:20:39.148Z,1005.10
2018-12-19T08:21:39.130Z,1005.06
2018-12-19T08:22:39.110Z,1005.04
2018-12-19T08:23:39.082Z,1005.06
2018-12-19T08:24:39.062Z,1005.13
2018-12-19T08:25:39.043Z,1005.06
2018-12-19T08:26:39.017Z,1005.06
2018-12-19T08:27:39.001Z,1005.04
2018-12-19T08:28:38.979Z,1005.09
2018-12-19T08:29:38.956Z,1005.07
2018-12-19T08:30:38.935Z,1005.11
2018-12-19T08:31:38.914Z,1005.08
2018-12-19T08:32:38.892Z,1005.13
2018-12-19T08:33:38.875Z,1005.21
2018-12-19T08:34:38.849Z,1005.17
2018-12-19T08:35:38.832Z,1005.14
2018-12-19T08:36:38.812Z,1005.20
2018-12-19T08:37:38.788Z,1005.24
2018-12-19T08:38:38.767Z,1005.21
2018-12-19T08:39:38.743Z,1005.18
2018-12-19T08:40:38.725Z,1005.21
2018-12-19T08:41:38.703Z,1005.26
2018-12-19T08:42:38.682Z,1005.26
2018-12-19T08:43:38.663Z,1005.24
2018-12-19T08:44:38.642Z,1005.29
2018-12-19T08:45:38.625Z,1005.31
2018-12-19T08:46:38.606Z,1005.27
2018-12-19T08:47:38.576Z,1005.35
2018-12-19T08:48:38.555Z,1005.36
2018-12-19T08:49:38.541Z,1005.43
2018-12-19T08:50:38.522Z,1005.33
2018-12-19T08:51:38.495Z,1005.37
2018-12-19T08:52:38.480Z,1005.33
2018-12-19T08:53:38.458Z,1005.38
2018-12-19T08:54:38.432Z,1005.35
2018-12-19T08:55:38.415Z,1005.41
2018-12-19T08:56:38.396Z,1005.36
2018-12-19T08:57:38.370Z,1005.43
2018-12-19T08:58:38.351Z,1005.44
2018-12-19T08:59:38.330Z,1005.40
2018-12-19T09:00:38.315Z,1005.42
2018-12-19T09:01:38.285Z,1005.47
2018-12-19T09:02:38.266Z,1005.48
2018-12-19T09:03:38.252Z,1005.44
2018-12-19T09:04:38.224Z,1005.44
2018-12-19T09:05:38.211Z,1005.45
2018-12-19T09:06:38.183Z,1005.45
2018-12-19T09:07:38.163Z,1005.50
2018-12-19T09:08:38.140Z,1005.51
2018-12-19T09:09:38.114Z,1005.46
2018-12-19T09:10:38.097Z,1005.48
2018-12-19T09:11:38.075Z,1005.45
2018-12-19T09:12:38.062Z,1005.49
2018-12-19T09:13:38.033Z,1005.50
2018-12-19T09:14:38.012Z,1005.47
2018-12-19T09:15:37.991Z,1005.48
2018-12-19T09:16:37.966Z,1005.48
2018-12-19T09:17:37.946Z,1005.54
2018-12-19T09:18:37.926Z,1005.54
2018-12-19T09:19:37.905Z,1005.48
2018-12-19T09:20:37.882Z,1005.53
2018-12-19T09:21:37.865Z,1005.55
2018-12-19T09:22:37.841Z,1005.50
2018-12-19T09:23:37.825Z,1005.56
2018-12-19T09:24:37.805Z,1005.50
2018-12-19T09:25:37.780Z,1005.54
2018-12-19T09:26:37.766Z,1005.55
2018-12-19T09:27:37.736Z,1005.57
2018-12-19T09:28:37.722Z,1005.57
2018-12-19T09:29:37.694Z,1005.55
2018-12-19T09:30:37.673Z,1005.60
2018-12-19T09:31:37.657Z,1005.57
2018-12-19T09:32:37.632Z,1005.66
2018-12-19T09:33:37.613Z,1005.69
2018-12-19T09:34:37.587Z,1005.62
2018-12-19T09:35:37.567Z,1005.58
2018-12-19T09:36:37.554Z,1005.64
2018-12-19T09:37:37.526Z,1005.66
2018-12-19T09:38:37.508Z,1005.74
2018-12-19T09:39:37.484Z,1005.70
2018-12-19T09:40:37.471Z,1005.76
2018-12-19T09:41:37.447Z,1005.80
2018-12-19T09:42:37.431Z,1005.77
2018-12-19T09:43:37.399Z,1005.75
2018-12-19T09:44:37.386Z,1005.77
2018-12-19T09:45:37.368Z,1005.79
2018-12-19T09:46:37.337Z,1005.72
2018-12-19T09:47:37.316Z,1005.77
2018-12-19T09:48:37.309Z,1005.68
2018-12-19T09:49:37.277Z,1005.75
2018-12-19T09:50:37.251Z,1005.78
2018-12-19T09:51:37.233Z,1005.78
2018-12-19T09:52:37.213Z,1005.69
2018-12-19T09:53:37.200Z,1005.77
2018-12-19T09:54:37.172Z,1005.81
2018-12-19T09:55:37.156Z,1005.76
2018-12-19T09:56:37.132Z,1005.76
2018-12-19T09:57:37.113Z,1005.81
2018-12-19T09:58:37.094Z,1005.72
2018-12-19T09:59:37.068Z,1005.71
2018-12-19T10:00:37.047Z,1005.77
2018-12-19T10:01:37.027Z,1005.71
2018-12-19T10:02:37.004Z,1005.71
2018-12-19T10:03:36.988Z,1005.70
2018-12-19T10:04:36.969Z,1005.68
2018-12-19T10:05:36.947Z,1005.72
2018-12-19T10:06:36.922Z,1005.67
2018-12-19T10:07:36.910Z,1005.71
2018-12-19T10:08:36.881Z,1005.69
2018-12-19T10:09:36.862Z,1005.66
2018-12-19T10:10:36.841Z,1005.67
2018-12-19T10:11:36.830Z,1005.64
2018-12-19T10:12:36.803Z,1005.66
2018-12-19T10:13:36.788Z,1005.72
2018-12-19T10:14:36.766Z,1005.65
2018-12-19T10:15:36.738Z,1005.62
2018-12-19T10:16:36.784Z,1005.66
2018-12-19T10:17:40.907Z,1005.58
2018-12-19T10:18:36.679Z,1005.59
2018-12-19T10:19:36.661Z,1005.60
2018-12-19T10:20:36.669Z,1005.55
2018-12-19T10:21:36.621Z,1005.54
2018-12-19T10:22:36.604Z,1005.66
2018-12-19T10:23:36.584Z,1005.72
2018-12-19T10:24:36.570Z,1005.62
2018-12-19T10:25:36.542Z,1005.59
2018-12-19T10:26:36.520Z,1005.64
2018-12-19T10:27:36.495Z,1005.64
2018-12-19T10:28:36.475Z,1005.64
2018-12-19T10:29:36.460Z,1005.60
2018-12-19T10:30:36.437Z,1005.66
2018-12-19T10:31:36.419Z,1005.64
2018-12-19T10:32:36.397Z,1005.63
2018-12-19T10:33:36.375Z,1005.60
2018-12-19T10:34:36.362Z,1005.60
2018-12-19T10:35:36.336Z,1005.66
2018-12-19T10:36:36.319Z,1005.69
2018-12-19T10:37:36.296Z,1005.66
2018-12-19T10:38:36.276Z,1005.66
2018-12-19T10:39:36.254Z,1005.64
2018-12-19T10:40:36.239Z,1005.69
2018-12-19T10:41:36.215Z,1005.66
2018-12-19T10:42:36.197Z,1005.64
2018-12-19T10:43:36.181Z,1005.64
2018-12-19T10:44:36.156Z,1005.64
2018-12-19T10:45:36.140Z,1005.63
2018-12-19T10:46:36.119Z,1005.56
2018-12-19T10:47:36.096Z,1005.56
2018-12-19T10:48:36.075Z,1005.52
2018-12-19T10:49:36.058Z,1005.68
2018-12-19T10:50:36.041Z,1005.60
2018-12-19T10:51:36.020Z,1005.59
2018-12-19T10:52:35.996Z,1005.53
2018-12-19T10:53:35.978Z,1005.55
2018-12-19T10:54:35.958Z,1005.55
2018-12-19T10:55:35.936Z,1005.54
2018-12-19T10:56:35.923Z,1005.51
2018-12-19T10:57:35.908Z,1005.54
2018-12-19T10:58:35.879Z,1005.54
2018-12-19T10:59:35.854Z,1005.52
2018-12-19T11:00:35.845Z,1005.55
2018-12-19T11:01:35.817Z,1005.56
2018-12-19T11:02:35.799Z,1005.56
2018-12-19T11:03:35.776Z,1005.53
2018-12-19T11:04:35.756Z,1005.57
2018-12-19T11:05:35.734Z,1005.55
2018-12-19T11:06:35.713Z,1005.58
2018-12-19T11:07:35.693Z,1005.58
2018-12-19T11:08:35.679Z,1005.63
2018-12-19T11:09:35.654Z,1005.59
2018-12-19T11:10:35.635Z,1005.61
2018-12-19T11:11:35.621Z,1005.68
2018-12-19T11:12:35.596Z,1005.64
2018-12-19T11:13:35.575Z,1005.66
2018-12-19T11:14:35.560Z,1005.62
2018-12-19T11:15:35.537Z,1005.65
2018-12-19T11:16:35.516Z,1005.68
2018-12-19T11:17:35.497Z,1005.67
2018-12-19T11:18:35.476Z,1005.70
2018-12-19T11:19:35.457Z,1005.67
2018-12-19T11:20:35.436Z,1005.72
2018-12-19T11:21:35.418Z,1005.68
2018-12-19T11:22:35.397Z,1005.63
2018-12-19T11:23:35.381Z,1005.61
2018-12-19T11:24:35.356Z,1005.72
2018-12-19T11:25:35.337Z,1005.65
2018-12-19T11:26:35.335Z,1005.62
2018-12-19T11:27:35.300Z,1005.58
2018-12-19T11:28:35.282Z,1005.58
2018-12-19T11:29:35.329Z,1005.55
2018-12-19T11:30:35.237Z,1005.55
2018-12-19T11:31:35.222Z,1005.58
2018-12-19T11:32:35.201Z,1005.54
2018-12-19T11:33:35.179Z,1005.57
2018-12-19T11:34:35.161Z,1005.56
2018-12-19T11:35:35.137Z,1005.55
2018-12-19T11:36:35.124Z,1005.53
2018-12-19T11:37:35.101Z,1005.52
2018-12-19T11:38:35.080Z,1005.50
2018-12-19T11:39:35.062Z,1005.50
2018-12-19T11:40:35.048Z,1005.50
2018-12-19T11:41:38.947Z,1005.54
2018-12-19T11:42:35.002Z,1005.49
2018-12-19T11:43:34.985Z,1005.53
2018-12-19T11:44:34.970Z,1005.48
2018-12-19T11:45:34.945Z,1005.50
2018-12-19T11:46:34.922Z,1005.48
2018-12-19T11:47:34.907Z,1005.50
2018-12-19T11:48:34.886Z,1005.45
2018-12-19T11:49:34.864Z,1005.44
2018-12-19T11:50:34.853Z,1005.46
2018-12-19T11:51:34.826Z,1005.47
2018-12-19T11:52:34.809Z,1005.50
2018-12-19T11:54:34.780Z,1005.46
2018-12-19T11:55:34.749Z,1005.46
2018-12-19T11:56:34.731Z,1005.43
2018-12-19T11:57:34.714Z,1005.42
2018-12-19T11:58:34.692Z,1005.41
2018-12-19T11:59:34.676Z,1005.45
2018-12-19T12:00:34.650Z,1005.40
2018-12-19T12:01:41.175Z,1005.46
2018-12-19T12:02:34.612Z,1005.43
2018-12-19T12:03:34.589Z,1005.43
2018-12-19T12:04:34.572Z,1005.45
2018-12-19T12:05:34.557Z,1005.46
2018-12-19T12:06:34.538Z,1005.48